Time;durP1;ratioP1;P1;durP2;ratioP2;P2;SDS_P1;SDS_P2;PMS_P1;PMS_P2;Temp;Humidity;BMP_temperature;BMP_pressure;BME280_temperature;BME280_humidity;BME280_pressure;Samples;Min_cycle;Max_cycle;Signal;HPM_P1;HPM_P2
2023/06/07 00:00:36;;;;;;;12.30;8.88;;;486.50;2380.80;;;;;;5049895;28;20064;-81
2023/06/07 00:03:09;;;;;;;10.60;8.07;;;486.50;2380.80;;;;;;5049877;28;20036;-80
2023/06/07 00:05:38;;;;;;;;;;;486.50;2380.80;;;;;;5050264;28;20120;-81
2023/06/07 00:08:08;;;;;;;11.85;8.07;;;486.60;2380.80;;;;;;5047104;28;19904;-79
2023/06/07 00:10:34;;;;;;;11.18;7.80;;;486.40;2380.80;;;;;;5059793;28;20389;-81
2023/06/07 00:13:01;;;;;;;12.30;8.68;;;486.40;2380.80;;;;;;5049922;28;20032;-81
2023/06/07 00:15:26;;;;;;;11.23;9.85;;;486.40;2380.80;;;;;;5049538;28;20034;-82
2023/06/07 00:17:52;;;;;;;11.70;8.82;;;461.70;2380.80;;;;;;5049661;28;20025;-80
2023/06/07 00:20:19;;;;;;;13.15;10.02;;;461.70;2380.80;;;;;;5049592;28;20516;-82
2023/06/07 00:22:47;;;;;;;12.63;9.43;;;461.60;2380.80;;;;;;5033680;28;20021;-81
2023/06/07 00:25:13;;;;;;;16.02;10.25;;;461.60;2380.80;;;;;;5049479;28;20083;-82
2023/06/07 00:27:39;;;;;;;17.00;10.15;;;461.60;2380.80;;;;;;5032872;28;20389;-81
2023/06/07 00:30:06;;;;;;;12.90;9.27;;;461.70;2380.80;;;;;;5032577;28;20056;-82
2023/06/07 00:32:32;;;;;;;11.77;8.98;;;461.70;2380.80;;;;;;5049415;28;20409;-81
2023/06/07 00:34:58;;;;;;;12.60;8.88;;;486.40;2380.80;;;;;;5049376;28;20048;-82
2023/06/07 00:37:23;;;;;;;9.88;8.15;;;486.40;2380.80;;;;;;5049236;28;20032;-82
2023/06/07 00:39:49;;;;;;;17.77;8.70;;;461.70;2380.80;;;;;;5049257;28;20029;-80
2023/06/07 00:42:15;;;;;;;17.00;8.00;;;486.40;2380.80;;;;;;5049410;28;20037;-82
2023/06/07 00:44:41;;;;;;;10.27;7.15;;;461.70;2380.80;;;;;;5049053;28;20032;-81
2023/06/07 00:47:06;;;;;;;13.70;7.75;;;461.60;2380.80;;;;;;5049235;28;20049;-80
2023/06/07 00:49:32;;;;;;;14.00;7.38;;;461.60;2380.80;;;;;;5049189;28;20029;-80
2023/06/07 00:51:59;;;;;;;10.48;7.90;;;461.60;2150.40;;;;;;5048904;28;20029;-81
2023/06/07 00:54:25;;;;;;;8.93;7.20;;;461.70;2380.80;;;;;;5049103;28;20053;-82
2023/06/07 00:56:51;;;;;;;9.57;7.38;;;486.40;2380.80;;;;;;5032436;28;20057;-81
2023/06/07 00:59:18;;;;;;;11.60;7.70;;;486.40;2380.80;;;;;;5032423;28;20116;-80
2023/06/07 01:01:46;;;;;;;12.90;8.48;;;486.40;2380.80;;;;;;5049031;28;20025;-82
2023/06/07 01:04:12;;;;;;;13.35;7.60;;;486.40;2355.20;;;;;;5049251;28;20083;-82
2023/06/07 01:06:38;;;;;;;9.95;7.57;;;461.70;2380.80;;;;;;5048340;28;20049;-82
2023/06/07 01:09:13;;;;;;;8.80;7.40;;;486.40;2252.80;;;;;;5049095;28;20112;-82
2023/06/07 01:11:42;;;;;;;12.10;7.32;;;461.70;2380.80;;;;;;5033039;28;20029;-81
2023/06/07 01:14:10;;;;;;;13.10;7.13;;;461.70;2380.80;;;;;;5048755;28;20022;-81
2023/06/07 01:16:38;;;;;;;12.38;7.63;;;486.40;2380.80;;;;;;5049137;28;20102;-81
2023/06/07 01:19:04;;;;;;;11.27;7.85;;;461.70;2380.80;;;;;;5032158;28;20084;-82
2023/06/07 01:21:33;;;;;;;9.30;7.07;;;461.70;2380.80;;;;;;5048844;28;20021;-81
2023/06/07 01:23:59;;;;;;;9.25;7.05;;;486.40;2380.80;;;;;;5048942;28;20025;-81
2023/06/07 01:26:27;;;;;;;8.05;6.97;;;486.40;2380.80;;;;;;5048541;28;20063;-80
2023/06/07 01:28:54;;;;;;;10.63;5.57;;;486.40;2380.80;;;;;;5048966;28;20036;-81
2023/06/07 01:31:23;;;;;;;11.77;7.72;;;486.40;2380.80;;;;;;5048822;28;20468;-81
2023/06/07 01:33:49;;;;;;;9.80;6.68;;;486.40;2380.80;;;;;;5034527;28;20036;-81
2023/06/07 01:36:15;;;;;;;8.85;6.80;;;486.40;2380.80;;;;;;5052638;28;20041;-82
2023/06/07 01:38:43;;;;;;;10.43;7.32;;;486.50;2380.80;;;;;;5036044;28;20025;-81
2023/06/07 01:41:10;;;;;;;13.02;7.47;;;486.50;2380.80;;;;;;5052121;28;20053;-81
2023/06/07 01:43:37;;;;;;;12.60;7.50;;;486.50;2380.80;;;;;;5052504;28;20072;-81
2023/06/07 01:46:03;;;;;;;12.10;8.27;;;486.50;2380.80;;;;;;5052685;28;20483;-82
2023/06/07 01:48:29;;;;;;;16.27;8.65;;;461.50;2380.80;;;;;;5052337;28;20051;-83
2023/06/07 01:50:55;;;;;;;11.93;9.32;;;486.40;2380.80;;;;;;5052571;28;20088;-82
2023/06/07 01:53:22;;;;;;;12.35;8.52;;;461.60;2380.80;;;;;;5035842;28;20500;-82
2023/06/07 01:55:58;;;;;;;13.10;9.13;;;461.50;2380.80;;;;;;5051712;28;20071;-80
2023/06/07 01:58:31;;;;;;;11.02;9.25;;;461.40;2380.80;;;;;;5052299;28;20470;-81
2023/06/07 02:01:08;;;;;;;14.63;10.30;;;461.40;2380.80;;;;;;5035378;28;20080;-81
2023/06/07 02:03:51;;;;;;;11.68;8.88;;;461.40;2380.80;;;;;;5035754;28;20059;-80
2023/06/07 02:06:23;;;;;;;14.48;9.65;;;461.40;2380.80;;;;;;5051730;28;20477;-80
2023/06/07 02:08:53;;;;;;;14.80;8.97;;;461.40;2380.80;;;;;;5052187;28;20025;-81
2023/06/07 02:11:22;;;;;;;12.35;9.02;;;461.40;2380.80;;;;;;5036448;28;20025;-81
2023/06/07 02:13:51;;;;;;;16.23;10.45;;;461.40;2380.80;;;;;;5035421;28;20030;-81
2023/06/07 02:16:32;;;;;;;12.98;9.38;;;461.40;2380.80;;;;;;5035160;28;20064;-81
2023/06/07 02:18:59;;;;;;;14.82;9.23;;;461.50;2380.80;;;;;;5052021;28;20029;-81
2023/06/07 02:21:24;;;;;;;15.10;10.07;;;461.40;2380.80;;;;;;5036615;28;20100;-81
2023/06/07 02:23:51;;;;;;;15.23;9.02;;;461.50;2380.80;;;;;;5035116;28;20463;-81
2023/06/07 02:26:16;;;;;;;11.50;9.55;;;461.60;2380.80;;;;;;5051799;28;20121;-80
2023/06/07 02:28:42;;;;;;;14.05;9.30;;;461.60;2380.80;;;;;;5051512;28;20067;-81
2023/06/07 02:31:08;;;;;;;9.38;7.82;;;461.60;2380.80;;;;;;5051668;28;20064;-81
2023/06/07 02:33:34;;;;;;;10.68;8.38;;;461.70;2380.80;;;;;;5034973;28;20029;-82
2023/06/07 02:35:59;;;;;;;12.68;8.80;;;486.40;2380.80;;;;;;5034650;28;20030;-81
2023/06/07 02:38:25;;;;;;;15.35;9.85;;;461.70;2380.80;;;;;;5050774;28;20487;-82
2023/06/07 02:40:54;;;;;;;11.00;9.60;;;461.70;2380.80;;;;;;5054016;28;20056;-82
2023/06/07 02:43:19;;;;;;;17.40;10.85;;;461.70;2380.80;;;;;;5054587;28;20035;-82
2023/06/07 02:45:45;;;;;;;12.73;9.93;;;461.60;2380.80;;;;;;5053371;28;20116;-81
2023/06/07 02:48:12;;;;;;;14.95;9.77;;;461.70;2380.80;;;;;;5053281;28;20083;-80
2023/06/07 02:50:38;;;;;;;15.48;10.52;;;461.70;2380.80;;;;;;5070094;28;20443;-83
2023/06/07 02:53:06;;;;;;;14.85;10.20;;;461.70;2380.80;;;;;;5054869;28;20025;-84
2023/06/07 02:55:31;;;;;;;13.07;9.82;;;461.70;2380.80;;;;;;5054655;28;20029;-82
2023/06/07 02:57:57;;;;;;;12.88;8.63;;;461.70;2380.80;;;;;;5071053;28;20035;-83
2023/06/07 03:00:23;;;;;;;13.43;10.73;;;461.70;2380.80;;;;;;5071413;28;20036;-83
2023/06/07 03:02:49;;;;;;;14.20;10.88;;;461.70;2380.80;;;;;;5055678;28;20457;-83
2023/06/07 03:05:15;;;;;;;18.58;11.90;;;461.40;2380.80;;;;;;5053903;28;20049;-83
2023/06/07 03:07:41;;;;;;;15.60;10.15;;;461.50;2380.80;;;;;;5054410;28;20495;-82
2023/06/07 03:10:07;;;;;;;16.05;11.85;;;461.50;2380.80;;;;;;5055532;28;20369;-83
2023/06/07 03:12:33;;;;;;;17.30;11.07;;;461.50;2380.80;;;;;;5055237;28;20102;-83
2023/06/07 03:14:58;;;;;;;12.80;10.23;;;461.50;2380.80;;;;;;5055752;28;20366;-83
2023/06/07 03:17:24;;;;;;;18.73;11.05;;;461.60;2380.80;;;;;;5057292;28;20032;-82
2023/06/07 03:19:50;;;;;;;16.75;11.88;;;461.60;2380.80;;;;;;5079293;28;20040;-82
2023/06/07 03:22:17;;;;;;;16.92;11.73;;;461.50;2380.80;;;;;;5054180;28;20372;-83
2023/06/07 03:24:43;;;;;;;18.17;11.85;;;461.50;2380.80;;;;;;5053828;28;20037;-83
2023/06/07 03:27:09;;;;;;;18.27;12.15;;;461.40;2380.80;;;;;;5053967;28;20079;-82
2023/06/07 03:29:34;;;;;;;17.15;11.95;;;461.40;2380.80;;;;;;5053751;28;20388;-82
2023/06/07 03:32:00;;;;;;;13.13;10.95;;;461.50;2380.80;;;;;;5053662;28;20028;-83
2023/06/07 03:34:29;;;;;;;12.02;9.90;;;461.70;2380.80;;;;;;5053764;28;20032;-83
2023/06/07 03:36:55;;;;;;;11.95;10.30;;;461.70;2380.80;;;;;;5070561;28;20032;-83
2023/06/07 03:39:21;;;;;;;14.18;10.05;;;486.50;2380.80;;;;;;5038976;28;20057;-83
2023/06/07 03:41:47;;;;;;;14.10;10.65;;;461.70;2380.80;;;;;;5035118;28;20029;-82
2023/06/07 03:44:13;;;;;;;15.23;9.95;;;461.60;2380.80;;;;;;5033767;28;20026;-83
2023/06/07 03:46:40;;;;;;;12.50;9.43;;;461.60;2380.80;;;;;;5034699;28;20048;-83
2023/06/07 03:49:06;;;;;;;12.75;9.32;;;461.70;2380.80;;;;;;5050363;28;20030;-83
2023/06/07 03:51:32;;;;;;;16.33;9.93;;;486.40;2380.80;;;;;;5050239;28;20026;-83
2023/06/07 03:53:59;;;;;;;13.38;10.05;;;486.40;2380.80;;;;;;5050040;28;20120;-83
2023/06/07 03:56:25;;;;;;;10.50;7.47;;;486.40;2380.80;;;;;;5032820;28;20044;-83
2023/06/07 03:58:53;;;;;;;11.07;8.23;;;486.40;2380.80;;;;;;5050021;28;20036;-83
2023/06/07 04:01:19;;;;;;;16.58;7.78;;;486.50;2380.80;;;;;;5033129;28;20029;-82
2023/06/07 04:03:45;;;;;;;10.27;7.03;;;486.50;2380.80;;;;;;5050047;28;20091;-83
2023/06/07 04:06:10;;;;;;;13.35;7.85;;;486.50;2380.80;;;;;;5034765;28;20483;-83
2023/06/07 04:08:39;;;;;;;12.40;7.05;;;486.60;2073.60;;;;;;5034352;28;20036;-82
2023/06/07 04:11:06;;;;;;;9.82;6.93;;;486.60;2380.80;;;;;;5034770;28;20523;-82
2023/06/07 04:13:32;;;;;;;10.45;7.82;;;486.50;2380.80;;;;;;5033907;28;20029;-82
2023/06/07 04:15:57;;;;;;;10.85;7.35;;;486.60;2380.80;;;;;;5034132;28;20033;-83
2023/06/07 04:18:23;;;;;;;8.63;7.40;;;486.60;2380.80;;;;;;5049839;28;20025;-83
2023/06/07 04:20:49;;;;;;;11.70;8.65;;;486.50;2380.80;;;;;;5032679;28;20026;-82
2023/06/07 04:23:15;;;;;;;12.75;9.57;;;486.60;2380.80;;;;;;5049551;28;20163;-80
2023/06/07 04:25:42;;;;;;;15.02;11.32;;;486.40;2380.80;;;;;;5049454;28;20083;-80
2023/06/07 04:28:10;;;;;;;18.10;11.77;;;486.40;2380.80;;;;;;5032544;28;20465;-81
2023/06/07 04:30:36;;;;;;;19.83;13.40;;;486.40;2380.80;;;;;;5034372;28;20034;-80
2023/06/07 04:33:08;;;;;;;20.58;12.27;;;486.40;2380.80;;;;;;5033759;28;20029;-82
2023/06/07 04:35:36;;;;;;;19.08;11.38;;;486.40;2380.80;;;;;;5032288;28;20547;-81
2023/06/07 04:38:02;;;;;;;12.65;10.30;;;486.40;2380.80;;;;;;5032694;28;20192;-81
2023/06/07 04:40:29;;;;;;;17.08;12.52;;;486.40;2380.80;;;;;;5032683;28;20529;-82
2023/06/07 04:43:05;;;;;;;13.20;9.77;;;461.70;2380.80;;;;;;5032446;28;20029;-81
2023/06/07 04:45:36;;;;;;;16.55;10.02;;;486.80;2380.80;;;;;;5049238;28;20032;-81
2023/06/07 04:48:04;;;;;;;17.52;12.57;;;461.40;2380.80;;;;;;5032715;28;20040;-81
2023/06/07 04:50:30;;;;;;;16.33;11.27;;;486.40;2380.80;;;;;;5032259;28;20032;-82
2023/06/07 04:53:03;;;;;;;20.02;11.65;;;486.50;2380.80;;;;;;5033831;28;20113;-81
2023/06/07 04:55:29;;;;;;;;;;;486.50;2380.80;;;;;;5032632;28;20163;-81
2023/06/07 04:57:55;;;;;;;16.88;11.20;;;486.40;2380.80;;;;;;5049223;28;19912;-81
2023/06/07 05:00:22;;;;;;;18.92;11.57;;;461.70;2380.80;;;;;;5033830;28;20037;-81
2023/06/07 05:02:48;;;;;;;18.38;12.52;;;461.70;2380.80;;;;;;5032132;28;20120;-82
2023/06/07 05:05:14;;;;;;;17.13;11.43;;;461.70;2380.80;;;;;;5032280;28;20137;-82
2023/06/07 05:07:41;;;;;;;14.80;11.88;;;461.70;2380.80;;;;;;5033647;28;20120;-81
2023/06/07 05:10:07;;;;;;;15.98;11.27;;;461.70;2380.80;;;;;;5036322;28;20026;-81
2023/06/07 05:12:33;;;;;;;15.15;11.98;;;486.40;2380.80;;;;;;5037909;28;20060;-81
2023/06/07 05:14:59;;;;;;;15.00;11.95;;;486.50;2380.80;;;;;;5036311;28;20465;-80
2023/06/07 05:17:28;;;;;;;15.77;12.35;;;486.60;2380.80;;;;;;5036142;28;20387;-81
2023/06/07 05:19:55;;;;;;;16.05;11.75;;;486.70;2380.80;;;;;;5037586;28;20072;-81
2023/06/07 05:22:21;;;;;;;15.05;11.90;;;486.70;2380.80;;;;;;5036231;28;20026;-81
2023/06/07 05:24:48;;;;;;;14.15;11.07;;;486.80;2380.80;;;;;;5037376;28;20424;-81
2023/06/07 05:27:17;;;;;;;15.20;11.32;;;486.70;2380.80;;;;;;5037165;28;20036;-81
2023/06/07 05:29:43;;;;;;;15.40;11.95;;;;;;;;;;5036355;28;20420;-81
2023/06/07 05:32:09;;;;;;;16.52;11.32;;;;;;;;;;5035786;28;20121;-81
2023/06/07 05:34:35;;;;;;;18.45;11.23;;;487.10;2380.80;;;;;;5036068;28;20059;-80
2023/06/07 05:37:04;;;;;;;21.52;12.43;;;487.10;2380.80;;;;;;5036114;28;20053;-81
2023/06/07 05:39:30;;;;;;;15.35;12.95;;;;;;;;;;5037450;28;20060;-80
2023/06/07 05:41:56;;;;;;;14.45;12.02;;;;;;;;;;5035648;28;20024;-81
2023/06/07 05:44:22;;;;;;;19.88;9.77;;;;;;;;;;5035996;28;20029;-81
2023/06/07 05:46:48;;;;;;;12.30;8.93;;;512.20;2380.80;;;;;;5042126;28;20021;-83
2023/06/07 05:49:13;;;;;;;17.38;13.05;;;512.20;2380.80;;;;;;5055620;28;20453;-82
2023/06/07 05:51:40;;;;;;;12.13;9.00;;;;;;;;;;5055693;28;20178;-83
2023/06/07 05:54:06;;;;;;;9.90;6.70;;;512.40;2380.80;;;;;;5056110;28;20476;-83
2023/06/07 05:56:32;;;;;;;12.15;6.43;;;512.40;2380.80;;;;;;5055716;28;20118;-83
2023/06/07 05:58:58;;;;;;;9.55;5.85;;;512.40;2380.80;;;;;;5055777;28;20067;-83
2023/06/07 06:01:24;;;;;;;10.02;5.68;;;512.40;2380.80;;;;;;5055484;28;20025;-81
2023/06/07 06:03:50;;;;;;;10.75;5.28;;;512.40;2380.80;;;;;;5055551;28;20025;-80
2023/06/07 06:06:17;;;;;;;9.23;5.50;;;512.40;2380.80;;;;;;5056394;28;20056;-80
2023/06/07 06:08:44;;;;;;;7.95;4.93;;;512.40;2380.80;;;;;;5055350;28;20365;-80
2023/06/07 06:11:12;;;;;;;9.90;4.70;;;512.40;2380.80;;;;;;5055313;28;20398;-79
2023/06/07 06:13:38;;;;;;;10.02;5.43;;;512.40;2380.80;;;;;;5055226;28;20029;-80
2023/06/07 06:16:05;;;;;;;9.43;4.85;;;512.20;2380.80;;;;;;5055261;28;20132;-80
2023/06/07 06:18:31;;;;;;;7.97;4.82;;;512.40;2380.80;;;;;;5055225;28;20070;-81
2023/06/07 06:20:57;;;;;;;8.02;4.40;;;512.30;2380.80;;;;;;5055728;28;20033;-80
2023/06/07 06:23:24;;;;;;;8.80;5.13;;;512.30;2380.80;;;;;;5056553;28;20029;-80
2023/06/07 06:25:50;;;;;;;12.00;4.97;;;512.40;2380.80;;;;;;5055242;28;20040;-79
2023/06/07 06:28:16;;;;;;;6.82;4.93;;;512.30;2380.80;;;;;;5055139;28;20092;-80
2023/06/07 06:30:45;;;;;;;10.82;5.15;;;512.50;2380.80;;;;;;5058804;28;20060;-80
2023/06/07 06:33:11;;;;;;;10.48;5.10;;;512.60;2380.80;;;;;;5054758;28;20063;-80
2023/06/07 06:35:37;;;;;;;15.02;5.55;;;512.60;2380.80;;;;;;5054629;28;20064;-81
2023/06/07 06:38:03;;;;;;;10.63;5.30;;;512.60;2380.80;;;;;;5054746;28;20025;-80
2023/06/07 06:40:29;;;;;;;8.85;5.40;;;512.80;2380.80;;;;;;5055748;28;20036;-81
2023/06/07 06:42:55;;;;;;;9.88;5.50;;;512.80;2380.80;;;;;;5054489;28;20017;-80
2023/06/07 06:45:21;;;;;;;10.52;5.40;;;512.80;2380.80;;;;;;5054626;28;20078;-81
2023/06/07 06:47:46;;;;;;;13.45;5.30;;;512.90;2380.80;;;;;;5054412;28;20032;-82
2023/06/07 06:50:13;;;;;;;10.70;5.60;;;512.90;2380.80;;;;;;5054211;28;20510;-80
2023/06/07 06:52:40;;;;;;;15.55;5.80;;;512.90;2380.80;;;;;;5054618;28;20029;-80
2023/06/07 06:55:06;;;;;;;10.82;6.05;;;512.90;2380.80;;;;;;5055413;28;20033;-80
2023/06/07 06:57:32;;;;;;;8.93;5.15;;;512.90;2380.80;;;;;;5054500;28;20044;-81
2023/06/07 07:00:10;;;;;;;10.70;6.10;;;537.70;2406.40;;;;;;5055270;28;20426;-81
2023/06/07 07:02:37;;;;;;;14.38;6.00;;;537.70;2406.40;;;;;;5054007;28;20115;-80
2023/06/07 07:05:06;;;;;;;13.43;5.57;;;537.70;2406.40;;;;;;5053958;28;20480;-81
2023/06/07 07:07:32;;;;;;;9.48;4.88;;;537.80;2406.40;;;;;;5054045;28;20075;-80
2023/06/07 07:09:59;;;;;;;16.50;4.75;;;537.70;2406.40;;;;;;5055174;28;20350;-80
2023/06/07 07:12:25;;;;;;;10.15;4.70;;;537.70;2406.40;;;;;;5055412;28;20108;-80
2023/06/07 07:14:51;;;;;;;11.30;3.90;;;537.70;2406.40;;;;;;5054025;28;20033;-80
2023/06/07 07:17:17;;;;;;;8.73;4.70;;;537.70;2406.40;;;;;;5053789;28;20056;-80
2023/06/07 07:19:43;;;;;;;10.48;4.20;;;512.90;2380.80;;;;;;5053976;28;20036;-81
2023/06/07 07:22:09;;;;;;;9.05;4.40;;;537.60;2406.40;;;;;;5053978;28;20029;-81
2023/06/07 07:24:35;;;;;;;11.45;4.75;;;512.90;2380.80;;;;;;5053547;28;20556;-80
2023/06/07 07:27:01;;;;;;;7.70;4.95;;;512.90;2380.80;;;;;;5053730;28;20362;-80
2023/06/07 07:29:27;;;;;;;9.07;4.45;;;512.90;2380.80;;;;;;5053546;28;20025;-82
2023/06/07 07:31:53;;;;;;;11.43;5.13;;;512.90;2380.80;;;;;;5053137;28;20032;-80
2023/06/07 07:34:18;;;;;;;10.85;4.35;;;512.90;2380.80;;;;;;5053478;28;20482;-80
2023/06/07 07:36:44;;;;;;;8.57;4.30;;;512.90;2380.80;;;;;;5054651;28;20033;-80
2023/06/07 07:39:17;;;;;;;9.38;5.13;;;537.60;2406.40;;;;;;5053802;28;20029;-80
2023/06/07 07:41:43;;;;;;;9.32;4.95;;;537.80;2406.40;;;;;;5053617;28;20025;-81
2023/06/07 07:44:08;;;;;;;6.35;4.72;;;537.70;2406.40;;;;;;5053279;28;20358;-80
2023/06/07 07:46:35;;;;;;;11.65;5.07;;;537.70;2406.40;;;;;;5053602;28;20033;-81
2023/06/07 07:49:01;;;;;;;10.95;5.28;;;537.70;2406.40;;;;;;5053518;28;20120;-81
2023/06/07 07:51:27;;;;;;;9.68;4.80;;;537.70;2406.40;;;;;;5054486;28;20025;-81
2023/06/07 07:53:53;;;;;;;14.70;5.25;;;537.80;2406.40;;;;;;5053349;28;20039;-81
2023/06/07 07:56:21;;;;;;;8.85;5.03;;;537.70;2406.40;;;;;;5054637;28;20108;-81
2023/06/07 07:58:48;;;;;;;10.25;5.65;;;537.70;2406.40;;;;;;5053078;28;20033;-80
2023/06/07 08:01:19;;;;;;;12.00;5.90;;;537.80;2406.40;;;;;;5053198;28;20063;-80
2023/06/07 08:03:46;;;;;;;10.65;5.95;;;537.80;2406.40;;;;;;5054338;28;20021;-82
2023/06/07 08:06:12;;;;;;;9.77;5.63;;;537.80;2406.40;;;;;;5053721;28;20429;-80
2023/06/07 08:08:38;;;;;;;8.52;4.97;;;537.80;2406.40;;;;;;5053042;28;20033;-80
2023/06/07 08:11:04;;;;;;;11.10;4.68;;;537.80;2406.40;;;;;;5053976;28;20025;-78
2023/06/07 08:13:29;;;;;;;7.03;4.60;;;537.80;2406.40;;;;;;5052644;28;20048;-80
2023/06/07 08:15:55;;;;;;;10.48;5.50;;;537.90;2406.40;;;;;;5052857;28;20039;-82
2023/06/07 08:18:21;;;;;;;6.30;4.95;;;537.90;2406.40;;;;;;5052845;28;20021;-80
2023/06/07 08:20:47;;;;;;;10.15;5.07;;;537.80;2406.40;;;;;;5052357;28;20025;-82
2023/06/07 08:23:13;;;;;;;11.30;5.07;;;537.90;2406.40;;;;;;5053841;28;20029;-80
2023/06/07 08:25:39;;;;;;;10.45;5.30;;;538.00;2406.40;;;;;;5053738;28;20428;-80
2023/06/07 08:28:05;;;;;;;9.38;4.82;;;538.00;2406.40;;;;;;5052735;28;20036;-82
2023/06/07 08:30:31;;;;;;;13.35;5.18;;;538.00;2406.40;;;;;;5052796;28;20029;-80
2023/06/07 08:32:57;;;;;;;9.55;4.88;;;538.20;2406.40;;;;;;5052601;28;20116;-81
2023/06/07 08:35:23;;;;;;;11.25;5.20;;;538.20;2406.40;;;;;;5051790;28;20125;-82
2023/06/07 08:37:49;;;;;;;9.68;4.80;;;538.20;2406.40;;;;;;5054205;28;20060;-83
2023/06/07 08:40:19;;;;;;;12.80;5.00;;;538.30;2406.40;;;;;;5045304;28;20029;-81
2023/06/07 08:42:45;;;;;;;11.77;5.07;;;538.30;2406.40;;;;;;5047489;28;20475;-81
2023/06/07 08:45:11;;;;;;;7.53;4.70;;;563.30;2432.00;;;;;;5052964;28;20118;-82
2023/06/07 08:47:37;;;;;;;11.07;5.90;;;563.30;2432.00;;;;;;5049276;28;20063;-81
2023/06/07 08:50:04;;;;;;;12.00;5.28;;;563.50;2432.00;;;;;;5069054;28;20021;-82
2023/06/07 08:52:31;;;;;;;7.40;4.80;;;563.70;2432.00;;;;;;5052646;28;20028;-82
2023/06/07 08:55:02;;;;;;;8.10;5.30;;;563.70;2432.00;;;;;;5048022;28;20037;-82
2023/06/07 08:57:30;;;;;;;7.28;5.00;;;563.80;2432.00;;;;;;5032661;28;20030;-83
2023/06/07 08:59:57;;;;;;;8.52;5.22;;;564.10;2432.00;;;;;;5033001;28;20057;-82
2023/06/07 09:02:25;;;;;;;9.45;5.53;;;564.00;2432.00;;;;;;5032324;28;20488;-82
2023/06/07 09:04:51;;;;;;;9.98;4.82;;;563.90;2432.00;;;;;;5033494;28;20049;-81
2023/06/07 09:07:17;;;;;;;8.13;4.25;;;564.00;2432.00;;;;;;5031812;28;20030;-85
2023/06/07 09:09:43;;;;;;;9.93;5.82;;;564.10;2432.00;;;;;;5032959;28;20108;-82
2023/06/07 09:12:13;;;;;;;7.45;5.25;;;564.10;2432.00;;;;;;5032308;28;20049;-82
2023/06/07 09:14:39;;;;;;;11.95;5.45;;;564.10;2432.00;;;;;;5032017;28;20030;-82
2023/06/07 09:17:05;;;;;;;10.88;4.97;;;588.80;2432.00;;;;;;5033952;28;20060;-83
2023/06/07 09:19:39;;;;;;;9.68;4.45;;;589.00;2432.00;;;;;;5032314;28;20045;-83
2023/06/07 09:22:13;;;;;;;8.85;4.95;;;588.80;2432.00;;;;;;5032462;28;20068;-82
2023/06/07 09:24:41;;;;;;;7.22;5.40;;;588.80;2432.00;;;;;;5032392;28;20026;-82
2023/06/07 09:27:10;;;;;;;10.00;5.30;;;589.10;2432.00;;;;;;5015130;28;20041;-82
2023/06/07 09:29:41;;;;;;;8.57;4.60;;;589.30;2432.00;;;;;;5031691;28;20060;-83
2023/06/07 09:32:20;;;;;;;7.22;4.00;;;589.40;2432.00;;;;;;5033164;28;20013;-82
2023/06/07 09:34:46;;;;;;;7.65;4.97;;;589.40;2432.00;;;;;;5032228;28;20029;-82
2023/06/07 09:37:13;;;;;;;9.10;4.07;;;589.50;2432.00;;;;;;5031986;28;20083;-82
2023/06/07 09:39:39;;;;;;;7.22;4.15;;;589.40;2432.00;;;;;;5032250;28;20025;-83
2023/06/07 09:42:15;;;;;;;7.35;5.35;;;589.50;2432.00;;;;;;5033671;28;20076;-83
2023/06/07 09:44:41;;;;;;;10.27;5.43;;;589.70;2432.00;;;;;;5033178;28;20105;-82
2023/06/07 09:47:18;;;;;;;12.35;6.88;;;;;;;;;;5031165;28;20112;-81
2023/06/07 09:49:44;;;;;;;9.18;4.68;;;614.90;2432.00;;;;;;5032092;28;20040;-84
2023/06/07 09:52:15;;;;;;;9.52;5.28;;;614.80;2432.00;;;;;;5055463;28;20049;-83
2023/06/07 09:54:42;;;;;;;7.97;5.10;;;614.80;2432.00;;;;;;5033726;28;20116;-84
2023/06/07 09:57:30;;;;;;;10.85;5.93;;;615.10;2432.00;;;;;;5035730;28;20355;-82
2023/06/07 09:59:58;;;;;;;10.50;6.28;;;615.10;2432.00;;;;;;5035519;28;20025;-83
2023/06/07 10:02:28;;;;;;;10.07;6.07;;;640.10;2432.00;;;;;;5036953;28;20062;-83
2023/06/07 10:04:56;;;;;;;9.27;4.50;;;640.20;2432.00;;;;;;5035261;28;20089;-83
2023/06/07 10:07:23;;;;;;;9.15;5.40;;;640.20;2432.00;;;;;;5034747;28;20060;-83
2023/06/07 10:09:53;;;;;;;10.55;5.45;;;640.40;2432.00;;;;;;5036624;28;20359;-84
2023/06/07 10:12:21;;;;;;;8.43;6.97;;;640.60;2432.00;;;;;;5035350;28;20026;-82
2023/06/07 10:14:47;;;;;;;12.68;7.20;;;640.90;2432.00;;;;;;5036717;28;20044;-84
2023/06/07 10:17:15;;;;;;;11.40;5.40;;;;;;;;;;5035470;28;20385;-84
2023/06/07 10:19:43;;;;;;;14.70;6.45;;;;;;;;;;5036445;28;20018;-82
2023/06/07 10:22:16;;;;;;;8.73;5.07;;;666.00;2432.00;;;;;;5036550;28;20465;-81
2023/06/07 10:25:23;;;;;;;8.02;4.65;;;665.90;2432.00;;;;;;5035086;28;20040;-82
2023/06/07 10:28:00;;;;;;;14.10;7.93;;;665.70;2432.00;;;;;;5033814;28;20037;-82
2023/06/07 10:30:28;;;;;;;13.30;5.75;;;666.10;2432.00;;;;;;5035178;28;20022;-83
2023/06/07 10:32:54;;;;;;;8.88;5.88;;;666.20;2432.00;;;;;;5036133;28;20453;-81
2023/06/07 10:35:20;;;;;;;7.82;5.13;;;666.20;2432.00;;;;;;5035073;28;20036;-82
2023/06/07 10:37:58;;;;;;;7.80;5.47;;;666.20;2432.00;;;;;;5036475;28;20485;-81
2023/06/07 10:40:25;;;;;;;6.18;4.72;;;666.40;2432.00;;;;;;5035801;28;20029;-80
2023/06/07 10:42:52;;;;;;;9.05;6.07;;;666.00;2432.00;;;;;;5036259;28;20496;-79
2023/06/07 10:45:19;;;;;;;10.35;4.70;;;666.30;2432.00;;;;;;5034671;28;20120;-81
2023/06/07 10:47:48;;;;;;;9.10;4.47;;;691.20;2432.00;;;;;;5033909;28;20032;-80
2023/06/07 10:50:26;;;;;;;9.70;5.00;;;691.50;2432.00;;;;;;5034642;28;20041;-81
2023/06/07 10:52:56;;;;;;;8.80;5.03;;;;;;;;;;5034618;28;20483;-81
2023/06/07 10:55:32;;;;;;;8.55;4.53;;;691.60;2432.00;;;;;;5034797;28;20036;-83
2023/06/07 10:57:59;;;;;;;9.05;4.68;;;691.50;2432.00;;;;;;5034712;28;20120;-81
2023/06/07 11:00:35;;;;;;;7.97;4.80;;;666.40;2432.00;;;;;;5035630;28;20030;-81
2023/06/07 11:03:08;;;;;;;9.45;4.50;;;666.50;2432.00;;;;;;5034737;28;20028;-81
2023/06/07 11:05:58;;;;;;;8.88;5.68;;;666.50;2432.00;;;;;;5035213;28;20053;-81
2023/06/07 11:08:30;;;;;;;10.30;4.82;;;666.50;2432.00;;;;;;5033347;28;20084;-81
2023/06/07 11:11:00;;;;;;;12.50;6.30;;;666.50;2432.00;;;;;;5034376;28;20075;-81
2023/06/07 11:13:46;;;;;;;5.90;4.40;;;666.40;2432.00;;;;;;5034144;28;20045;-81
2023/06/07 11:16:24;;;;;;;9.18;4.72;;;666.30;2406.40;;;;;;5031310;28;20054;-82
2023/06/07 11:19:00;;;;;;;12.15;6.07;;;666.00;2432.00;;;;;;5034398;28;20037;-82
2023/06/07 11:21:30;;;;;;;7.85;4.50;;;665.90;2432.00;;;;;;5034122;28;20052;-82
2023/06/07 11:24:14;;;;;;;6.18;4.00;;;665.60;2432.00;;;;;;5035195;28;20109;-81
2023/06/07 11:26:40;;;;;;;6.82;4.43;;;665.60;2432.00;;;;;;5034198;28;20076;-82
2023/06/07 11:29:10;;;;;;;10.68;4.93;;;640.90;2432.00;;;;;;5033072;28;20035;-81
2023/06/07 11:31:35;;;;;;;6.40;4.88;;;640.90;2432.00;;;;;;5034650;28;20032;-83
2023/06/07 11:34:02;;;;;;;8.23;4.22;;;640.90;2432.00;;;;;;5033960;28;20022;-84
2023/06/07 11:36:31;;;;;;;10.23;5.13;;;640.90;2432.00;;;;;;5033578;28;20496;-82
2023/06/07 11:38:59;;;;;;;7.20;4.80;;;640.70;2432.00;;;;;;5033824;28;20076;-82
2023/06/07 11:41:25;;;;;;;7.70;5.25;;;640.60;2432.00;;;;;;5034908;28;20026;-82
2023/06/07 11:43:51;;;;;;;7.90;4.80;;;640.50;2432.00;;;;;;5033897;28;20049;-82
2023/06/07 11:46:17;;;;;;;7.00;4.93;;;640.50;2432.00;;;;;;5035814;28;20481;-82
2023/06/07 11:48:43;;;;;;;7.97;5.38;;;640.40;2432.00;;;;;;5067182;28;20136;-81
2023/06/07 11:51:09;;;;;;;9.43;5.70;;;640.30;2432.00;;;;;;5053524;28;20461;-85
2023/06/07 11:53:35;;;;;;;10.15;5.63;;;640.20;2432.00;;;;;;5053464;28;20052;-82
2023/06/07 11:56:02;;;;;;;5.78;4.68;;;640.20;2432.00;;;;;;5052974;28;20523;-83
2023/06/07 11:58:29;;;;;;;7.50;5.40;;;640.10;2432.00;;;;;;5054543;28;20025;-82
2023/06/07 12:00:56;;;;;;;9.40;5.32;;;614.90;2432.00;;;;;;5053392;28;20075;-82
2023/06/07 12:03:23;;;;;;;9.38;5.40;;;640.00;2432.00;;;;;;5053115;28;20115;-82
2023/06/07 12:05:50;;;;;;;8.52;5.50;;;615.30;2432.00;;;;;;5054048;28;20053;-81
2023/06/07 12:08:17;;;;;;;8.35;5.65;;;615.20;2432.00;;;;;;5053199;28;20027;-85
2023/06/07 12:10:51;;;;;;;7.63;5.03;;;615.10;2432.00;;;;;;5052674;28;20025;-83
2023/06/07 12:13:21;;;;;;;9.95;5.60;;;615.00;2432.00;;;;;;5054334;28;20411;-83
2023/06/07 12:15:47;;;;;;;10.25;5.72;;;614.80;2432.00;;;;;;5054343;28;20182;-83